createdAt,value
2022-09-28T00:01:25.616Z,78.26
2022-09-28T00:03:59.937Z,78.28
2022-09-28T00:06:30.876Z,78.25
2022-09-28T00:08:59.255Z,78.43
2022-09-28T00:11:28.313Z,78.50
2022-09-28T00:14:02.411Z,78.54
2022-09-28T00:16:50.911Z,78.44
2022-09-28T00:19:19.077Z,78.50
2022-09-28T00:21:48.078Z,78.74
2022-09-28T00:24:16.226Z,78.69
2022-09-28T00:26:51.663Z,78.92
2022-09-28T00:29:32.656Z,78.87
2022-09-28T00:32:12.149Z,78.88
2022-09-28T00:34:45.986Z,79.04
2022-09-28T00:37:15.722Z,78.90
2022-09-28T00:39:44.419Z,78.87
2022-09-28T00:42:18.381Z,78.89
2022-09-28T00:44:51.560Z,78.73
2022-09-28T00:47:41.895Z,78.75
2022-09-28T00:50:36.350Z,78.78
2022-09-28T00:53:20.080Z,78.86
2022-09-28T00:55:57.480Z,78.79
2022-09-28T00:58:32.307Z,78.83
2022-09-28T01:01:00.915Z,78.97
2022-09-28T01:03:30.317Z,79.13
2022-09-28T01:06:02.764Z,79.25
2022-09-28T01:08:34.481Z,79.48
2022-09-28T01:11:02.702Z,79.57
2022-09-28T01:13:32.836Z,79.69
2022-09-28T01:16:08.191Z,79.74
2022-09-28T01:18:44.226Z,79.70
2022-09-28T01:21:23.856Z,79.81
2022-09-28T01:24:21.936Z,79.81
2022-09-28T01:27:04.939Z,79.82
2022-09-28T01:29:43.514Z,80.03
2022-09-28T01:32:43.292Z,80.16
2022-09-28T01:35:33.542Z,80.15
2022-09-28T01:38:14.887Z,80.05
2022-09-28T01:40:45.319Z,79.85
2022-09-28T01:43:21.360Z,79.83
2022-09-28T01:46:19.398Z,79.87
2022-09-28T01:48:56.615Z,79.93
2022-09-28T01:51:47.605Z,80.03
2022-09-28T01:54:37.792Z,80.07
2022-09-28T01:57:18.711Z,79.99
2022-09-28T02:00:01.098Z,80.11
2022-09-28T02:02:43.219Z,80.07
2022-09-28T02:05:21.076Z,80.13
2022-09-28T02:08:13.482Z,80.08
2022-09-28T02:10:54.307Z,80.13
2022-09-28T02:13:33.022Z,80.02
2022-09-28T02:16:14.430Z,79.93
2022-09-28T02:18:43.327Z,79.91
2022-09-28T02:21:47.115Z,79.95
2022-09-28T02:25:03.965Z,79.99
2022-09-28T02:27:45.010Z,80.06
2022-09-28T02:30:14.198Z,79.94
2022-09-28T02:32:47.304Z,79.80
2022-09-28T02:35:19.073Z,79.87
2022-09-28T02:37:47.348Z,79.75
2022-09-28T02:40:22.000Z,79.75
2022-09-28T02:43:22.664Z,79.71
2022-09-28T02:46:17.736Z,79.70
2022-09-28T02:49:21.741Z,79.67
2022-09-28T02:52:18.126Z,79.54
2022-09-28T02:55:24.599Z,79.49
2022-09-28T02:58:27.919Z,79.51
2022-09-28T03:01:36.456Z,79.38
2022-09-28T03:04:37.624Z,79.45
2022-09-28T03:07:21.162Z,79.36
2022-09-28T03:10:33.740Z,79.20
2022-09-28T03:13:04.008Z,79.16
2022-09-28T03:15:34.919Z,79.23
2022-09-28T03:18:03.526Z,79.17
2022-09-28T03:20:33.625Z,79.34
2022-09-28T03:23:23.828Z,79.29
2022-09-28T03:25:51.873Z,79.24
2022-09-28T03:28:21.308Z,79.29
2022-09-28T03:30:50.509Z,79.45
2022-09-28T03:33:19.793Z,79.36
2022-09-28T03:35:50.484Z,79.25
2022-09-28T03:38:19.512Z,79.27
2022-09-28T03:41:00.542Z,79.44
2022-09-28T03:43:31.987Z,79.39
2022-09-28T03:46:02.375Z,79.48
2022-09-28T03:48:35.480Z,79.53
2022-09-28T03:51:09.161Z,79.58
2022-09-28T03:53:37.535Z,79.64
2022-09-28T03:56:15.456Z,79.61
2022-09-28T03:58:43.682Z,79.68
2022-09-28T04:01:17.565Z,79.75
2022-09-28T04:03:47.701Z,79.68
2022-09-28T04:06:15.877Z,79.82
2022-09-28T04:08:43.979Z,79.86
2022-09-28T04:11:12.556Z,79.90
2022-09-28T04:13:41.325Z,79.74
2022-09-28T04:16:12.103Z,79.87
2022-09-28T04:18:43.031Z,79.92
2022-09-28T04:21:14.122Z,80.12
2022-09-28T04:23:49.083Z,80.12
2022-09-28T04:26:24.786Z,80.16
2022-09-28T04:29:11.843Z,80.18
2022-09-28T04:31:47.234Z,80.21
2022-09-28T04:34:20.032Z,80.22
2022-09-28T04:36:49.252Z,80.33
2022-09-28T04:39:21.577Z,80.43
2022-09-28T04:41:53.035Z,80.49
2022-09-28T04:44:21.141Z,80.66
2022-09-28T04:46:51.148Z,80.53
2022-09-28T04:49:31.207Z,80.61
2022-09-28T04:52:14.658Z,80.77
2022-09-28T04:54:46.387Z,80.62
2022-09-28T04:57:14.635Z,80.63
2022-09-28T04:59:42.793Z,80.68
2022-09-28T05:02:12.136Z,80.84
2022-09-28T05:05:03.487Z,80.91
2022-09-28T05:07:59.376Z,80.97
2022-09-28T05:10:27.587Z,80.79
2022-09-28T05:12:55.687Z,80.74
2022-09-28T05:15:23.756Z,80.80
2022-09-28T05:17:53.382Z,80.63
2022-09-28T05:20:42.248Z,80.65
2022-09-28T05:23:12.536Z,80.81
2022-09-28T05:25:43.434Z,80.89
2022-09-28T05:28:27.986Z,81.01
2022-09-28T05:31:14.902Z,80.84
2022-09-28T05:34:29.867Z,80.96
2022-09-28T05:36:58.124Z,81.16
2022-09-28T05:39:26.281Z,81.17
2022-09-28T05:41:57.809Z,81.21
2022-09-28T05:44:26.052Z,81.17
2022-09-28T05:46:55.151Z,81.18
2022-09-28T05:49:24.285Z,81.24
2022-09-28T05:51:52.438Z,81.34
2022-09-28T05:54:21.738Z,81.34
2022-09-28T05:56:51.915Z,81.37
2022-09-28T05:59:20.029Z,81.35
2022-09-28T06:01:48.129Z,81.36
2022-09-28T06:04:16.845Z,81.35
2022-09-28T06:06:45.781Z,81.19
2022-09-28T06:09:14.023Z,81.22
2022-09-28T06:11:59.614Z,81.06
2022-09-28T06:14:42.360Z,80.91
2022-09-28T06:17:12.390Z,80.94
2022-09-28T06:19:40.543Z,80.94
2022-09-28T06:22:31.109Z,80.72
2022-09-28T06:25:06.885Z,80.38
2022-09-28T06:27:35.043Z,80.30
2022-09-28T06:30:04.077Z,80.16
2022-09-28T06:32:35.279Z,79.96
2022-09-28T06:35:03.865Z,79.90
2022-09-28T06:37:33.076Z,79.55
2022-09-28T06:40:02.331Z,79.30
2022-09-28T06:42:31.438Z,79.24
2022-09-28T06:45:55.936Z,79.18
2022-09-28T06:49:23.239Z,79.02
2022-09-28T06:52:10.253Z,78.71
2022-09-28T06:54:56.659Z,78.66
2022-09-28T06:57:43.340Z,78.60
2022-09-28T07:00:13.322Z,77.98
2022-09-28T07:02:45.753Z,77.80
2022-09-28T07:06:10.296Z,77.67
2022-09-28T07:08:46.069Z,77.42
2022-09-28T07:11:41.797Z,77.11
2022-09-28T07:14:42.030Z,76.82
2022-09-28T07:17:14.057Z,76.64
2022-09-28T07:19:44.648Z,76.32
2022-09-28T07:22:18.995Z,76.17
2022-09-28T07:24:48.775Z,75.81
2022-09-28T07:28:06.868Z,75.49
2022-09-28T07:31:25.370Z,74.82
2022-09-28T07:34:11.995Z,73.88
2022-09-28T07:36:58.932Z,73.67
2022-09-28T07:39:27.185Z,73.17
2022-09-28T07:41:59.675Z,72.68
2022-09-28T07:44:31.102Z,72.35
2022-09-28T07:46:59.844Z,72.15
2022-09-28T07:49:40.325Z,72.14
2022-09-28T07:52:36.288Z,72.12
2022-09-28T07:55:23.807Z,71.68
2022-09-28T07:58:11.403Z,71.17
2022-09-28T08:01:32.512Z,68.80
2022-09-28T08:04:01.343Z,68.75
2022-09-28T08:06:30.455Z,68.19
2022-09-28T08:09:00.073Z,68.01
2022-09-28T08:11:49.943Z,68.02
2022-09-28T08:14:35.306Z,67.69
2022-09-28T08:17:17.025Z,67.19
2022-09-28T08:20:06.620Z,66.78
2022-09-28T08:22:35.407Z,66.83
2022-09-28T08:25:05.092Z,65.14
2022-09-28T08:27:33.810Z,64.81
2022-09-28T08:30:02.636Z,64.28
2022-09-28T08:32:55.287Z,63.95
2022-09-28T08:35:42.449Z,63.63
2022-09-28T08:38:19.579Z,62.90
2022-09-28T08:40:57.651Z,62.54
2022-09-28T08:44:12.448Z,62.12
2022-09-28T08:47:07.921Z,61.46
2022-09-28T08:50:33.071Z,61.17
2022-09-28T08:54:06.991Z,60.75
2022-09-28T08:56:54.605Z,60.48
2022-09-28T08:59:28.788Z,61.14
2022-09-28T09:02:04.865Z,59.88
2022-09-28T09:04:34.658Z,59.99
2022-09-28T09:07:54.449Z,60.14
2022-09-28T09:10:49.844Z,60.05
2022-09-28T09:13:56.085Z,60.34
2022-09-28T09:16:45.820Z,60.14
2022-09-28T09:19:42.078Z,60.44
2022-09-28T09:22:43.635Z,59.75
2022-09-28T09:25:44.961Z,59.85
2022-09-28T09:28:58.376Z,59.60
2022-09-28T09:31:49.829Z,59.62
2022-09-28T09:34:46.712Z,59.35
2022-09-28T09:37:54.159Z,59.36
2022-09-28T09:41:10.403Z,57.96
2022-09-28T09:44:42.716Z,58.40
2022-09-28T09:48:02.356Z,58.73
2022-09-28T09:50:50.616Z,59.00
2022-09-28T09:53:44.586Z,58.77
2022-09-28T09:56:28.320Z,58.45
2022-09-28T09:59:27.771Z,58.40
2022-09-28T10:02:35.257Z,58.82
2022-09-28T10:05:13.343Z,58.70
2022-09-28T10:08:03.226Z,58.29
2022-09-28T10:10:38.662Z,58.10
2022-09-28T10:13:10.289Z,57.87
2022-09-28T10:15:41.567Z,57.72
2022-09-28T10:18:19.152Z,57.68
2022-09-28T10:21:05.897Z,57.79
2022-09-28T10:23:57.619Z,57.11
2022-09-28T10:26:59.045Z,56.74
2022-09-28T10:29:39.115Z,56.40
2022-09-28T10:32:36.731Z,56.67
2022-09-28T10:35:24.450Z,56.19
2022-09-28T10:38:14.928Z,56.51
2022-09-28T10:40:55.813Z,55.01
2022-09-28T10:44:07.135Z,55.42
2022-09-28T10:46:59.472Z,55.00
2022-09-28T10:49:37.266Z,54.34
2022-09-28T10:52:32.057Z,55.08
2022-09-28T10:55:01.388Z,54.72
2022-09-28T10:57:39.988Z,54.34
2022-09-28T11:00:31.494Z,54.87
2022-09-28T11:03:34.147Z,55.32
2022-09-28T11:06:08.485Z,54.43
2022-09-28T11:08:42.860Z,54.13
2022-09-28T11:11:19.977Z,54.35
2022-09-28T11:13:51.541Z,53.70
2022-09-28T11:16:36.296Z,53.65
2022-09-28T11:19:28.611Z,53.85
2022-09-28T11:21:56.832Z,52.50
2022-09-28T11:24:34.937Z,52.86
2022-09-28T11:27:04.388Z,53.04
2022-09-28T11:29:38.621Z,52.69
2022-09-28T11:33:46.778Z,52.05
2022-09-28T11:37:11.241Z,52.26
2022-09-28T11:40:36.856Z,51.52
2022-09-28T11:43:31.553Z,51.73
2022-09-28T11:46:26.054Z,51.44
2022-09-28T11:49:03.023Z,50.85
2022-09-28T11:51:36.344Z,50.97
2022-09-28T11:54:20.531Z,50.67
2022-09-28T11:56:50.535Z,49.83
2022-09-28T11:59:28.445Z,50.03
2022-09-28T12:02:10.824Z,50.31
2022-09-28T12:05:21.257Z,50.19
2022-09-28T12:08:20.795Z,50.38
2022-09-28T12:11:15.704Z,50.21
2022-09-28T12:14:06.856Z,49.35
2022-09-28T12:17:07.150Z,49.12
2022-09-28T12:19:49.604Z,49.31
2022-09-28T12:22:25.560Z,48.28
2022-09-28T12:24:57.728Z,49.22
2022-09-28T12:27:45.202Z,49.25
2022-09-28T12:30:20.383Z,49.63
2022-09-28T12:33:07.440Z,49.82
2022-09-28T12:36:07.893Z,49.87
2022-09-28T12:39:30.855Z,50.09
2022-09-28T12:42:08.182Z,50.80
2022-09-28T12:45:27.743Z,50.77
2022-09-28T12:48:25.132Z,51.06
2022-09-28T12:51:18.779Z,51.12
2022-09-28T12:53:49.552Z,51.09
2022-09-28T12:56:56.875Z,50.66
2022-09-28T12:59:39.896Z,50.86
2022-09-28T13:03:02.207Z,50.91
2022-09-28T13:06:20.268Z,50.70
2022-09-28T13:09:06.549Z,50.96
2022-09-28T13:11:58.765Z,50.95
2022-09-28T13:15:32.781Z,50.96
2022-09-28T13:18:13.304Z,50.73
2022-09-28T13:21:11.120Z,50.78
2022-09-28T13:23:51.813Z,50.83
2022-09-28T13:26:31.832Z,50.66
2022-09-28T13:29:11.082Z,50.79
2022-09-28T13:31:51.953Z,51.21
2022-09-28T13:34:36.529Z,52.21
2022-09-28T13:37:18.923Z,53.02
2022-09-28T13:39:53.431Z,52.67
2022-09-28T13:42:31.908Z,53.00
2022-09-28T13:45:17.531Z,51.90
2022-09-28T13:47:51.774Z,52.08
2022-09-28T13:51:00.169Z,51.66
2022-09-28T13:53:36.868Z,51.24
2022-09-28T13:56:04.923Z,49.23
2022-09-28T13:58:48.398Z,49.62
2022-09-28T14:01:42.567Z,49.17
2022-09-28T14:04:22.540Z,49.92
2022-09-28T14:07:10.665Z,51.12
2022-09-28T14:09:47.925Z,51.01
2022-09-28T14:12:34.295Z,50.05
2022-09-28T14:15:26.489Z,50.87
2022-09-28T14:18:23.927Z,51.90
2022-09-28T14:21:03.175Z,52.07
2022-09-28T14:23:43.743Z,50.08
2022-09-28T14:26:11.728Z,50.28
2022-09-28T14:28:56.584Z,50.01
2022-09-28T14:31:28.588Z,50.39
2022-09-28T14:34:03.407Z,51.47
2022-09-28T14:37:01.712Z,52.28
2022-09-28T14:39:52.959Z,53.48
2022-09-28T14:42:25.456Z,53.82
2022-09-28T14:45:06.261Z,54.54
2022-09-28T14:47:42.394Z,55.05
2022-09-28T14:50:28.388Z,55.57
2022-09-28T14:53:15.127Z,55.43
2022-09-28T14:55:50.169Z,55.25
2022-09-28T14:58:23.825Z,55.07
2022-09-28T15:01:02.843Z,54.94
2022-09-28T15:03:34.374Z,54.99
2022-09-28T15:06:02.497Z,54.79
2022-09-28T15:08:39.482Z,54.92
2022-09-28T15:11:17.072Z,55.34
2022-09-28T15:13:45.200Z,55.00
2022-09-28T15:16:16.919Z,55.37
2022-09-28T15:19:04.053Z,55.30
2022-09-28T15:21:40.103Z,55.71
2022-09-28T15:24:34.708Z,56.50
2022-09-28T15:27:23.858Z,56.34
2022-09-28T15:30:18.533Z,56.36
2022-09-28T15:32:46.630Z,56.44
2022-09-28T15:35:28.103Z,57.01
2022-09-28T15:37:56.281Z,56.99
2022-09-28T15:40:37.792Z,57.00
2022-09-28T15:43:33.236Z,57.00
2022-09-28T15:46:13.746Z,57.16
2022-09-28T15:48:59.768Z,57.72
2022-09-28T15:51:29.537Z,58.29
2022-09-28T15:54:20.613Z,58.53
2022-09-28T15:57:02.525Z,58.66
2022-09-28T15:59:39.801Z,58.47
2022-09-28T16:02:18.404Z,58.47
2022-09-28T16:04:51.696Z,58.65
2022-09-28T16:07:40.591Z,58.99
2022-09-28T16:10:11.604Z,59.24
2022-09-28T16:12:55.107Z,59.56
2022-09-28T16:15:36.838Z,59.77
2022-09-28T16:18:14.666Z,60.16
2022-09-28T16:20:43.655Z,60.19
2022-09-28T16:23:20.751Z,60.74
2022-09-28T16:25:52.481Z,60.85
2022-09-28T16:28:51.741Z,61.06
2022-09-28T16:31:20.388Z,61.03
2022-09-28T16:34:11.575Z,61.18
2022-09-28T16:36:46.226Z,60.90
2022-09-28T16:39:16.917Z,60.76
2022-09-28T16:42:01.771Z,60.52
2022-09-28T16:44:32.728Z,60.54
2022-09-28T16:47:01.373Z,60.53
2022-09-28T16:49:32.189Z,60.58
2022-09-28T16:52:02.417Z,60.32
2022-09-28T16:54:49.408Z,60.27
2022-09-28T16:57:17.605Z,60.12
2022-09-28T16:59:45.744Z,60.20
2022-09-28T17:02:46.256Z,60.24
2022-09-28T17:05:10.283Z,60.40
2022-09-28T17:07:39.532Z,60.25
2022-09-28T17:11:09.862Z,60.42
2022-09-28T17:13:34.704Z,60.49
2022-09-28T17:16:08.990Z,60.53
2022-09-28T17:18:39.187Z,60.83
2022-09-28T17:21:19.156Z,61.46
2022-09-28T17:23:49.869Z,61.59
2022-09-28T17:26:34.492Z,61.74
2022-09-28T17:29:02.932Z,61.71
2022-09-28T17:31:31.128Z,62.08
2022-09-28T17:33:59.263Z,62.48
2022-09-28T17:36:27.344Z,62.49
2022-09-28T17:38:55.676Z,62.53
2022-09-28T17:41:23.822Z,62.94
2022-09-28T17:43:52.046Z,62.99
2022-09-28T17:46:33.644Z,63.45
2022-09-28T17:49:05.121Z,63.46
2022-09-28T17:51:37.603Z,63.59
2022-09-28T17:54:08.061Z,63.60
2022-09-28T17:56:37.166Z,63.79
2022-09-28T17:59:10.624Z,63.94
2022-09-28T18:01:40.333Z,64.55
2022-09-28T18:04:22.997Z,65.15
2022-09-28T18:07:00.534Z,65.32
2022-09-28T18:09:28.799Z,65.86
2022-09-28T18:12:04.142Z,66.11
2022-09-28T18:14:32.659Z,66.41
2022-09-28T18:17:00.748Z,66.90
2022-09-28T18:19:32.168Z,67.17
2022-09-28T18:22:01.793Z,66.87
2022-09-28T18:24:32.572Z,66.89
2022-09-28T18:27:00.870Z,66.84
2022-09-28T18:29:33.136Z,67.01
2022-09-28T18:32:03.170Z,66.93
2022-09-28T18:34:31.403Z,67.06
2022-09-28T18:36:59.546Z,67.22
2022-09-28T18:39:27.744Z,67.31
2022-09-28T18:41:56.195Z,67.24
2022-09-28T18:44:24.282Z,67.37
2022-09-28T18:46:52.392Z,67.47
2022-09-28T18:49:22.246Z,67.48
2022-09-28T18:51:50.385Z,67.40
2022-09-28T18:54:18.555Z,67.50
2022-09-28T18:56:46.679Z,67.57
2022-09-28T18:59:15.030Z,67.54
2022-09-28T19:01:43.291Z,67.44
2022-09-28T19:04:13.613Z,67.28
2022-09-28T19:06:44.564Z,67.04
2022-09-28T19:09:13.187Z,67.07
2022-09-28T19:11:41.525Z,66.97
2022-09-28T19:14:11.229Z,66.79
2022-09-28T19:16:39.356Z,66.78
2022-09-28T19:19:07.623Z,66.83
2022-09-28T19:21:35.852Z,66.86
2022-09-28T19:24:04.289Z,66.58
2022-09-28T19:26:33.748Z,66.71
2022-09-28T19:29:03.110Z,66.78
2022-09-28T19:31:32.646Z,66.60
2022-09-28T19:34:01.087Z,66.48
2022-09-28T19:36:30.263Z,66.56
2022-09-28T19:39:03.617Z,66.36
2022-09-28T19:41:43.395Z,66.39
2022-09-28T19:44:24.848Z,66.53
2022-09-28T19:47:07.153Z,66.49
2022-09-28T19:49:39.158Z,66.39
2022-09-28T19:52:16.944Z,66.40
2022-09-28T19:54:57.831Z,66.46
2022-09-28T19:57:32.665Z,66.35
2022-09-28T20:00:03.590Z,66.16
2022-09-28T20:02:36.893Z,66.15
2022-09-28T20:05:05.468Z,66.33
2022-09-28T20:07:34.823Z,66.33
2022-09-28T20:10:03.118Z,66.34
2022-09-28T20:12:31.638Z,66.14
2022-09-28T20:14:59.748Z,66.15
2022-09-28T20:17:27.917Z,66.24
2022-09-28T20:19:56.029Z,66.27
2022-09-28T20:22:24.242Z,66.33
2022-09-28T20:24:52.334Z,66.46
2022-09-28T20:27:24.336Z,66.44
2022-09-28T20:29:54.423Z,66.46
2022-09-28T20:32:22.564Z,66.57
2022-09-28T20:34:50.765Z,66.62
2022-09-28T20:37:19.423Z,66.59
2022-09-28T20:39:47.634Z,66.63
2022-09-28T20:42:15.803Z,66.79
2022-09-28T20:44:44.200Z,66.97
2022-09-28T20:47:12.267Z,66.90
2022-09-28T20:49:40.453Z,66.95
2022-09-28T20:52:09.030Z,66.95
2022-09-28T20:54:38.089Z,66.93
2022-09-28T20:57:17.551Z,66.94
2022-09-28T20:59:51.006Z,67.01
2022-09-28T21:02:22.828Z,67.15
2022-09-28T21:04:51.154Z,67.31
2022-09-28T21:07:19.295Z,67.43
2022-09-28T21:09:48.523Z,67.55
2022-09-28T21:12:17.176Z,67.64
2022-09-28T21:14:45.254Z,67.88
2022-09-28T21:17:13.688Z,67.91
2022-09-28T21:19:41.739Z,68.03
2022-09-28T21:22:09.840Z,68.37
2022-09-28T21:24:38.004Z,68.38
2022-09-28T21:27:06.081Z,68.39
2022-09-28T21:29:34.192Z,68.40
2022-09-28T21:32:02.248Z,68.43
2022-09-28T21:34:30.337Z,68.79
2022-09-28T21:36:58.440Z,68.93
2022-09-28T21:39:26.495Z,69.09
2022-09-28T21:41:54.583Z,69.25
2022-09-28T21:44:22.684Z,69.60
2022-09-28T21:46:50.831Z,69.78
2022-09-28T21:49:19.580Z,69.96
2022-09-28T21:51:47.675Z,69.98
2022-09-28T21:54:15.776Z,70.06
2022-09-28T21:56:43.925Z,70.20
2022-09-28T21:59:12.019Z,70.21
2022-09-28T22:01:42.675Z,70.32
2022-09-28T22:04:11.202Z,70.49
2022-09-28T22:06:39.800Z,70.64
2022-09-28T22:09:08.124Z,70.84
2022-09-28T22:11:36.883Z,70.90
2022-09-28T22:14:04.951Z,70.89
2022-09-28T22:16:33.087Z,70.83
2022-09-28T22:19:01.572Z,70.94
2022-09-28T22:21:34.885Z,71.10
2022-09-28T22:24:07.078Z,71.17
2022-09-28T22:26:37.435Z,71.32
2022-09-28T22:29:08.984Z,71.41
2022-09-28T22:31:40.106Z,71.42
2022-09-28T22:34:09.226Z,71.60
2022-09-28T22:36:37.522Z,71.65
2022-09-28T22:39:06.165Z,71.72
2022-09-28T22:41:35.647Z,71.67
2022-09-28T22:44:03.849Z,71.78
2022-09-28T22:46:32.815Z,71.65
2022-09-28T22:49:01.808Z,71.63
2022-09-28T22:51:31.325Z,71.92
2022-09-28T22:53:59.681Z,71.91
2022-09-28T22:56:28.628Z,71.99
2022-09-28T22:58:56.800Z,72.00
2022-09-28T23:01:30.609Z,72.10
2022-09-28T23:03:59.603Z,71.93
2022-09-28T23:06:30.946Z,72.13
2022-09-28T23:08:59.740Z,72.07
2022-09-28T23:11:29.701Z,72.23
2022-09-28T23:14:00.056Z,72.17
2022-09-28T23:16:28.316Z,72.17
2022-09-28T23:18:56.967Z,71.94
2022-09-28T23:21:27.300Z,72.17
2022-09-28T23:24:03.725Z,72.52
2022-09-28T23:26:34.235Z,72.37
2022-09-28T23:29:02.583Z,72.51
2022-09-28T23:31:33.144Z,72.65
2022-09-28T23:34:05.038Z,72.62
2022-09-28T23:36:34.628Z,72.73
2022-09-28T23:39:03.850Z,72.79
2022-09-28T23:41:32.528Z,72.86
2022-09-28T23:44:00.748Z,72.88
2022-09-28T23:46:28.880Z,72.75
2022-09-28T23:48:57.054Z,72.76
2022-09-28T23:51:25.332Z,72.85
2022-09-28T23:53:53.415Z,73.05
2022-09-28T23:56:21.692Z,73.26
2022-09-28T23:58:49.797Z,73.07
